createdAt,value
2022-08-30T00:00:04.135Z,51.323421
2022-08-30T00:01:04.111Z,51.323418
2022-08-30T00:02:04.093Z,51.323421
2022-08-30T00:03:04.158Z,51.323418
2022-08-30T00:04:04.068Z,51.323425
2022-08-30T00:05:04.020Z,51.323433
2022-08-30T00:06:03.997Z,51.323433
2022-08-30T00:07:03.978Z,51.323441
2022-08-30T00:08:03.949Z,51.323433
2022-08-30T00:09:03.926Z,51.323441
2022-08-30T00:10:03.904Z,51.323441
2022-08-30T00:11:03.883Z,51.323448
2022-08-30T00:12:03.857Z,51.323437
2022-08-30T00:13:03.835Z,51.323444
2022-08-30T00:14:03.807Z,51.323448
2022-08-30T00:15:03.790Z,51.323437
2022-08-30T00:16:03.829Z,51.323429
2022-08-30T00:17:03.743Z,51.323441
2022-08-30T00:18:03.719Z,51.323433
2022-08-30T00:19:03.937Z,51.323437
2022-08-30T00:20:03.679Z,51.323421
2022-08-30T00:21:03.651Z,51.323441
2022-08-30T00:22:03.628Z,51.323414
2022-08-30T00:23:03.604Z,51.323406
2022-08-30T00:24:03.582Z,51.323418
2022-08-30T00:25:03.561Z,51.323463
2022-08-30T00:26:03.535Z,51.323425
2022-08-30T00:27:03.522Z,51.323421
2022-08-30T00:28:03.487Z,51.323406
2022-08-30T00:29:03.467Z,51.323444
2022-08-30T00:30:03.445Z,51.323444
2022-08-30T00:31:03.490Z,51.323437
2022-08-30T00:32:03.399Z,51.323444
2022-08-30T00:33:03.375Z,51.323437
2022-08-30T00:34:03.349Z,51.323444
2022-08-30T00:35:03.326Z,51.323452
2022-08-30T00:36:03.305Z,51.323433
2022-08-30T00:37:03.286Z,51.323387
2022-08-30T00:38:03.263Z,51.323391
2022-08-30T00:39:03.241Z,51.323456
2022-08-30T00:40:03.274Z,51.323414
2022-08-30T00:41:03.192Z,51.323402
2022-08-30T00:42:03.177Z,51.323395
2022-08-30T00:43:05.692Z,51.323399
2022-08-30T00:44:03.124Z,51.323414
2022-08-30T00:45:03.099Z,51.323425
2022-08-30T00:46:03.159Z,51.323395
2022-08-30T00:47:03.051Z,51.323429
2022-08-30T00:48:03.036Z,51.323429
2022-08-30T00:49:03.010Z,51.323433
2022-08-30T00:50:02.985Z,51.323433
2022-08-30T00:51:02.966Z,51.323437
2022-08-30T00:52:02.945Z,51.323441
2022-08-30T00:53:02.921Z,51.323444
2022-08-30T00:54:02.900Z,51.323429
2022-08-30T00:55:02.882Z,51.323387
2022-08-30T00:56:02.854Z,51.323402
2022-08-30T00:57:02.819Z,51.323410
2022-08-30T00:58:04.247Z,51.323421
2022-08-30T00:59:02.787Z,51.323406
2022-08-30T01:00:02.839Z,51.323418
2022-08-30T01:01:02.796Z,51.323441
2022-08-30T01:02:02.810Z,51.323425
2022-08-30T01:03:02.788Z,51.323414
2022-08-30T01:04:02.724Z,51.323414
2022-08-30T01:05:02.653Z,51.323414
2022-08-30T01:06:02.631Z,51.323429
2022-08-30T01:07:02.606Z,51.323444
2022-08-30T01:08:02.585Z,51.323437
2022-08-30T01:09:02.561Z,51.323387
2022-08-30T01:10:02.540Z,51.323391
2022-08-30T01:11:02.519Z,51.323395
2022-08-30T01:12:02.498Z,51.323421
2022-08-30T01:13:02.494Z,51.323383
2022-08-30T01:14:02.456Z,51.323402
2022-08-30T01:15:02.432Z,51.323399
2022-08-30T01:16:02.523Z,51.323463
2022-08-30T01:17:02.385Z,51.323456
2022-08-30T01:18:02.391Z,51.323425
2022-08-30T01:19:02.361Z,51.323391
2022-08-30T01:20:02.321Z,51.323402
2022-08-30T01:21:02.304Z,51.323391
2022-08-30T01:22:02.277Z,51.323395
2022-08-30T01:23:02.254Z,51.323414
2022-08-30T01:24:02.235Z,51.323406
2022-08-30T01:25:02.215Z,51.323421
2022-08-30T01:26:02.187Z,51.323410
2022-08-30T01:27:02.161Z,51.323421
2022-08-30T01:28:02.143Z,51.323399
2022-08-30T01:29:02.125Z,51.323406
2022-08-30T01:30:02.094Z,51.323429
2022-08-30T01:31:02.119Z,51.323402
2022-08-30T01:32:02.050Z,51.323399
2022-08-30T01:33:03.028Z,51.323421
2022-08-30T01:34:02.004Z,51.323421
2022-08-30T01:35:01.978Z,51.323421
2022-08-30T01:36:01.956Z,51.323410
2022-08-30T01:37:01.931Z,51.323421
2022-08-30T01:38:01.911Z,51.323410
2022-08-30T01:39:01.892Z,51.323410
2022-08-30T01:40:01.889Z,51.323418
2022-08-30T01:41:01.838Z,51.323418
2022-08-30T01:42:01.818Z,51.323380
2022-08-30T01:43:01.795Z,51.323391
2022-08-30T01:44:01.774Z,51.323380
2022-08-30T01:45:01.751Z,51.323387
2022-08-30T01:46:01.783Z,51.323387
2022-08-30T01:47:01.708Z,51.323406
2022-08-30T01:48:03.754Z,51.323414
2022-08-30T01:49:02.676Z,51.323402
2022-08-30T01:50:01.638Z,51.323399
2022-08-30T01:51:01.619Z,51.323376
2022-08-30T01:52:01.626Z,51.323391
2022-08-30T01:53:02.576Z,51.323406
2022-08-30T01:54:01.554Z,51.323380
2022-08-30T01:55:01.530Z,51.323391
2022-08-30T01:56:01.502Z,51.323387
2022-08-30T01:57:01.485Z,51.323410
2022-08-30T01:58:01.460Z,51.323406
2022-08-30T01:59:03.118Z,51.323399
2022-08-30T02:00:02.421Z,51.323395
2022-08-30T02:01:01.433Z,51.323414
2022-08-30T02:02:01.376Z,51.323406
2022-08-30T02:03:01.356Z,51.323406
2022-08-30T02:04:01.379Z,51.323410
2022-08-30T02:05:01.317Z,51.323391
2022-08-30T02:06:01.294Z,51.323421
2022-08-30T02:07:01.263Z,51.323402
2022-08-30T02:08:02.252Z,51.323391
2022-08-30T02:09:01.230Z,51.323421
2022-08-30T02:10:01.209Z,51.323410
2022-08-30T02:11:01.183Z,51.323414
2022-08-30T02:12:01.164Z,51.323418
2022-08-30T02:13:01.147Z,51.323399
2022-08-30T02:14:01.116Z,51.323402
2022-08-30T02:15:01.096Z,51.323421
2022-08-30T02:16:01.078Z,51.323437
2022-08-30T02:17:01.146Z,51.323421
2022-08-30T02:18:01.263Z,51.323421
2022-08-30T02:19:00.999Z,51.323425
2022-08-30T02:20:00.984Z,51.323421
2022-08-30T02:21:00.957Z,51.323433
2022-08-30T02:22:00.939Z,51.323410
2022-08-30T02:23:01.557Z,51.323444
2022-08-30T02:24:01.892Z,51.323429
2022-08-30T02:25:00.865Z,51.323406
2022-08-30T02:26:00.843Z,51.323429
2022-08-30T02:27:00.821Z,51.323425
2022-08-30T02:28:00.798Z,51.323444
2022-08-30T02:29:00.773Z,51.323429
2022-08-30T02:30:00.759Z,51.323448
2022-08-30T02:31:00.799Z,51.323441
2022-08-30T02:32:00.705Z,51.323433
2022-08-30T02:33:00.689Z,51.323414
2022-08-30T02:34:00.664Z,51.323425
2022-08-30T02:35:00.642Z,51.323429
2022-08-30T02:36:00.620Z,51.323425
2022-08-30T02:37:00.594Z,51.323418
2022-08-30T02:38:00.572Z,51.323402
2022-08-30T02:39:00.551Z,51.323414
2022-08-30T02:40:00.548Z,51.323418
2022-08-30T02:41:00.506Z,51.323410
2022-08-30T02:42:00.493Z,51.323410
2022-08-30T02:43:00.467Z,51.323391
2022-08-30T02:44:00.448Z,51.323402
2022-08-30T02:45:00.424Z,51.323399
2022-08-30T02:46:00.445Z,51.323410
2022-08-30T02:47:00.377Z,51.323399
2022-08-30T02:48:00.355Z,51.323406
2022-08-30T02:49:05.646Z,51.323402
2022-08-30T02:50:02.315Z,51.323387
2022-08-30T02:51:00.298Z,51.323421
2022-08-30T02:52:00.274Z,51.323433
2022-08-30T02:53:00.255Z,51.323414
2022-08-30T02:54:00.229Z,51.323368
2022-08-30T02:55:00.216Z,51.323399
2022-08-30T02:56:00.184Z,51.323387
2022-08-30T02:57:00.165Z,51.323406
2022-08-30T02:58:00.141Z,51.323399
2022-08-30T02:59:00.118Z,51.323418
2022-08-30T03:00:00.129Z,51.323433
2022-08-30T03:01:00.129Z,51.323421
2022-08-30T03:02:00.054Z,51.323456
2022-08-30T03:03:00.030Z,51.323433
2022-08-30T03:04:00.115Z,51.323395
2022-08-30T03:04:59.985Z,51.323395
2022-08-30T03:05:59.963Z,51.323410
2022-08-30T03:06:59.948Z,51.323418
2022-08-30T03:07:59.925Z,51.323421
2022-08-30T03:08:59.901Z,51.323421
2022-08-30T03:09:59.879Z,51.323406
2022-08-30T03:10:59.866Z,51.323414
2022-08-30T03:11:59.839Z,51.323410
2022-08-30T03:12:59.822Z,51.323418
2022-08-30T03:13:59.802Z,51.323402
2022-08-30T03:14:59.785Z,51.323418
2022-08-30T03:15:59.759Z,51.323402
2022-08-30T03:16:59.741Z,51.323418
2022-08-30T03:17:59.720Z,51.323418
2022-08-30T03:18:59.698Z,51.323418
2022-08-30T03:19:59.676Z,51.323421
2022-08-30T03:20:59.654Z,51.323425
2022-08-30T03:21:59.633Z,51.323410
2022-08-30T03:22:59.613Z,51.323418
2022-08-30T03:23:59.589Z,51.323414
2022-08-30T03:24:59.595Z,51.323406
2022-08-30T03:25:59.551Z,51.323399
2022-08-30T03:26:59.525Z,51.323421
2022-08-30T03:27:59.501Z,51.323437
2022-08-30T03:28:59.481Z,51.323418
2022-08-30T03:29:59.455Z,51.323421
2022-08-30T03:30:59.438Z,51.323433
2022-08-30T03:31:59.431Z,51.323448
2022-08-30T03:32:59.395Z,51.323380
2022-08-30T03:33:59.378Z,51.323410
2022-08-30T03:34:59.353Z,51.323444
2022-08-30T03:35:59.334Z,51.323395
2022-08-30T03:36:59.310Z,51.323406
2022-08-30T03:37:59.287Z,51.323406
2022-08-30T03:38:59.267Z,51.323433
2022-08-30T03:39:59.286Z,51.323444
2022-08-30T03:40:59.222Z,51.323467
2022-08-30T03:41:59.225Z,51.323452
2022-08-30T03:42:59.182Z,51.323421
2022-08-30T03:44:00.075Z,51.323418
2022-08-30T03:44:59.140Z,51.323425
2022-08-30T03:45:59.124Z,51.323410
2022-08-30T03:46:59.099Z,51.323402
2022-08-30T03:47:59.079Z,51.323395
2022-08-30T03:48:59.058Z,51.323399
2022-08-30T03:49:59.043Z,51.323406
2022-08-30T03:50:59.020Z,51.323418
2022-08-30T03:51:58.999Z,51.323429
2022-08-30T03:52:58.987Z,51.323425
2022-08-30T03:53:58.957Z,51.323433
2022-08-30T03:54:58.944Z,51.323437
2022-08-30T03:55:58.915Z,51.323437
2022-08-30T03:56:58.896Z,51.323433
2022-08-30T03:57:58.880Z,51.323456
2022-08-30T03:58:58.859Z,51.323448
2022-08-30T03:59:58.843Z,51.323452
2022-08-30T04:00:58.835Z,51.323456
2022-08-30T04:01:58.854Z,51.323490
2022-08-30T04:02:59.779Z,51.323471
2022-08-30T04:03:58.757Z,51.323456
2022-08-30T04:04:58.740Z,51.323444
2022-08-30T04:05:58.720Z,51.323486
2022-08-30T04:06:58.699Z,51.323513
2022-08-30T04:07:58.680Z,51.323452
2022-08-30T04:08:58.659Z,51.323441
2022-08-30T04:09:58.643Z,51.323425
2022-08-30T04:10:58.621Z,51.323441
2022-08-30T04:11:58.602Z,51.323418
2022-08-30T04:12:58.585Z,51.323429
2022-08-30T04:13:58.561Z,51.323380
2022-08-30T04:14:58.543Z,51.323399
2022-08-30T04:15:58.541Z,51.323414
2022-08-30T04:16:58.502Z,51.323425
2022-08-30T04:17:58.481Z,51.323444
2022-08-30T04:18:58.461Z,51.323441
2022-08-30T04:19:58.441Z,51.323444
2022-08-30T04:20:58.420Z,51.323444
2022-08-30T04:21:58.401Z,51.323429
2022-08-30T04:22:58.384Z,51.323471
2022-08-30T04:23:58.360Z,51.323475
2022-08-30T04:24:58.341Z,51.323570
2022-08-30T04:25:58.321Z,51.323505
2022-08-30T04:26:58.300Z,51.323524
2022-08-30T04:27:58.282Z,51.323444
2022-08-30T04:28:58.284Z,51.323483
2022-08-30T04:29:58.240Z,51.323479
2022-08-30T04:30:58.221Z,51.323544
2022-08-30T04:31:58.277Z,51.323517
2022-08-30T04:32:58.908Z,51.323463
2022-08-30T04:33:59.158Z,51.323433
2022-08-30T04:34:58.137Z,51.323460
2022-08-30T04:35:58.120Z,51.323425
2022-08-30T04:36:58.098Z,51.323380
2022-08-30T04:37:58.076Z,51.323448
2022-08-30T04:38:58.062Z,51.323441
2022-08-30T04:39:58.149Z,51.323421
2022-08-30T04:40:58.020Z,51.323399
2022-08-30T04:41:57.998Z,51.323387
2022-08-30T04:42:57.978Z,51.323452
2022-08-30T04:43:57.960Z,51.323410
2022-08-30T04:44:57.938Z,51.323360
2022-08-30T04:45:58.009Z,51.323349
2022-08-30T04:46:57.902Z,51.323391
2022-08-30T04:47:57.876Z,51.323414
2022-08-30T04:48:57.857Z,51.323418
2022-08-30T04:49:57.837Z,51.323433
2022-08-30T04:50:57.817Z,51.323414
2022-08-30T04:51:57.792Z,51.323399
2022-08-30T04:52:57.774Z,51.323406
2022-08-30T04:53:57.750Z,51.323421
2022-08-30T04:54:57.729Z,51.323429
2022-08-30T04:55:57.705Z,51.323418
2022-08-30T04:56:57.683Z,51.323425
2022-08-30T04:57:57.664Z,51.323391
2022-08-30T04:58:57.645Z,51.323402
2022-08-30T04:59:57.620Z,51.323402
2022-08-30T05:00:57.655Z,51.323429
2022-08-30T05:01:57.589Z,51.323421
2022-08-30T05:02:57.552Z,51.323421
2022-08-30T05:03:57.530Z,51.323425
2022-08-30T05:04:57.509Z,51.323406
2022-08-30T05:05:57.487Z,51.323399
2022-08-30T05:06:57.459Z,51.323391
2022-08-30T05:07:57.438Z,51.323395
2022-08-30T05:08:57.415Z,51.323364
2022-08-30T05:09:57.395Z,51.323364
2022-08-30T05:10:57.372Z,51.323429
2022-08-30T05:11:57.352Z,51.323395
2022-08-30T05:12:57.331Z,51.323410
2022-08-30T05:13:57.308Z,51.323414
2022-08-30T05:14:57.287Z,51.323414
2022-08-30T05:15:57.282Z,51.323414
2022-08-30T05:16:57.243Z,51.323376
2022-08-30T05:17:57.222Z,51.323391
2022-08-30T05:18:57.203Z,51.323372
2022-08-30T05:19:57.182Z,51.323368
2022-08-30T05:20:57.162Z,51.323353
2022-08-30T05:21:57.139Z,51.323334
2022-08-30T05:22:57.126Z,51.323387
2022-08-30T05:23:57.105Z,51.323368
2022-08-30T05:24:57.086Z,51.323376
2022-08-30T05:25:57.066Z,51.323387
2022-08-30T05:26:57.049Z,51.323383
2022-08-30T05:27:57.029Z,51.323372
2022-08-30T05:28:57.011Z,51.323380
2022-08-30T05:29:56.994Z,51.323391
2022-08-30T05:30:57.023Z,51.323395
2022-08-30T05:31:56.973Z,51.323387
2022-08-30T05:32:56.989Z,51.323372
2022-08-30T05:33:56.930Z,51.323380
2022-08-30T05:34:56.902Z,51.323395
2022-08-30T05:35:56.891Z,51.323391
2022-08-30T05:36:56.860Z,51.323383
2022-08-30T05:37:56.847Z,51.323372
2022-08-30T05:38:56.831Z,51.323372
2022-08-30T05:39:56.889Z,51.323372
2022-08-30T05:40:56.790Z,51.323391
2022-08-30T05:41:56.786Z,51.323376
2022-08-30T05:42:56.756Z,51.323368
2022-08-30T05:43:56.734Z,51.323364
2022-08-30T05:44:56.717Z,51.323391
2022-08-30T05:45:56.693Z,51.323418
2022-08-30T05:46:56.679Z,51.323399
2022-08-30T05:47:56.660Z,51.323380
2022-08-30T05:48:56.646Z,51.323391
2022-08-30T05:49:56.624Z,51.323357
2022-08-30T05:50:56.607Z,51.323360
2022-08-30T05:51:56.587Z,51.323368
2022-08-30T05:52:56.579Z,51.323376
2022-08-30T05:53:56.551Z,51.323380
2022-08-30T05:54:56.531Z,51.323376
2022-08-30T05:55:56.515Z,51.323399
2022-08-30T05:56:56.496Z,51.323387
2022-08-30T05:57:56.474Z,51.323387
2022-08-30T05:58:56.459Z,51.323383
2022-08-30T05:59:56.444Z,51.323395
2022-08-30T06:00:56.421Z,51.323406
2022-08-30T06:01:56.445Z,51.323395
2022-08-30T06:02:56.420Z,51.323406
2022-08-30T06:03:59.280Z,51.323421
2022-08-30T06:04:57.514Z,51.323402
2022-08-30T06:05:56.330Z,51.323429
2022-08-30T06:06:56.317Z,51.323406
2022-08-30T06:07:56.302Z,51.323410
2022-08-30T06:08:56.281Z,51.323410
2022-08-30T06:09:56.263Z,51.323425
2022-08-30T06:10:56.242Z,51.323444
2022-08-30T06:11:56.224Z,51.323429
2022-08-30T06:12:56.212Z,51.323425
2022-08-30T06:13:56.194Z,51.323444
2022-08-30T06:14:56.175Z,51.323421
2022-08-30T06:15:56.196Z,51.323437
2022-08-30T06:16:56.141Z,51.323460
2022-08-30T06:17:56.127Z,51.323452
2022-08-30T06:18:56.103Z,51.323421
2022-08-30T06:19:56.087Z,51.323444
2022-08-30T06:20:56.079Z,51.323460
2022-08-30T06:21:56.053Z,51.323483
2022-08-30T06:22:56.039Z,51.323463
2022-08-30T06:23:56.018Z,51.323452
2022-08-30T06:24:57.989Z,51.323395
2022-08-30T06:25:56.982Z,51.323414
2022-08-30T06:26:55.965Z,51.323421
2022-08-30T06:27:56.643Z,51.323452
2022-08-30T06:28:56.933Z,51.323463
2022-08-30T06:29:55.911Z,51.323429
2022-08-30T06:30:55.946Z,51.323448
2022-08-30T06:31:55.879Z,51.323456
2022-08-30T06:32:55.861Z,51.323444
2022-08-30T06:33:55.846Z,51.323437
2022-08-30T06:34:55.829Z,51.323437
2022-08-30T06:36:00.423Z,51.323391
2022-08-30T06:36:57.790Z,51.323402
2022-08-30T06:37:55.777Z,51.323421
2022-08-30T06:38:55.769Z,51.323414
2022-08-30T06:39:55.755Z,51.323414
2022-08-30T06:40:55.724Z,51.323429
2022-08-30T06:41:55.721Z,51.323421
2022-08-30T06:42:55.688Z,51.323406
2022-08-30T06:43:55.668Z,51.323410
2022-08-30T06:44:55.658Z,51.323421
2022-08-30T06:45:55.636Z,51.323429
2022-08-30T06:46:55.648Z,51.323410
2022-08-30T06:47:55.642Z,51.323433
2022-08-30T06:48:56.077Z,51.323425
2022-08-30T06:49:55.568Z,51.323410
2022-08-30T06:50:55.551Z,51.323429
2022-08-30T06:51:55.532Z,51.323441
2022-08-30T06:52:55.519Z,51.323441
2022-08-30T06:53:55.503Z,51.323433
2022-08-30T06:54:55.486Z,51.323444
2022-08-30T06:55:55.466Z,51.323448
2022-08-30T06:56:58.500Z,51.323460
2022-08-30T06:57:56.431Z,51.323467
2022-08-30T06:58:55.415Z,51.323471
2022-08-30T06:59:57.190Z,51.323463
2022-08-30T07:00:56.384Z,51.323452
2022-08-30T07:01:55.442Z,51.323452
2022-08-30T07:02:55.429Z,51.323448
2022-08-30T07:03:55.333Z,51.323448
2022-08-30T07:04:55.320Z,51.323452
2022-08-30T07:05:55.304Z,51.323463
2022-08-30T07:06:55.269Z,51.323460
2022-08-30T07:07:56.266Z,51.323460
2022-08-30T07:08:56.348Z,51.323456
2022-08-30T07:09:55.223Z,51.323452
2022-08-30T07:10:55.219Z,51.323441
2022-08-30T07:11:56.208Z,51.323441
2022-08-30T07:12:55.172Z,51.323421
2022-08-30T07:13:55.157Z,51.323437
2022-08-30T07:14:55.143Z,51.323414
2022-08-30T07:15:55.193Z,51.323425
2022-08-30T07:16:55.104Z,51.323444
2022-08-30T07:17:55.091Z,51.323429
2022-08-30T07:18:55.101Z,51.323441
2022-08-30T07:19:55.053Z,51.323471
2022-08-30T07:20:55.039Z,51.323460
2022-08-30T07:21:55.019Z,51.323448
2022-08-30T07:22:55.001Z,51.323444
2022-08-30T07:23:54.981Z,51.323441
2022-08-30T07:24:54.970Z,51.323460
2022-08-30T07:25:54.944Z,51.323448
2022-08-30T07:26:54.928Z,51.323444
2022-08-30T07:27:54.907Z,51.323441
2022-08-30T07:28:56.188Z,51.323429
2022-08-30T07:29:54.872Z,51.323456
2022-08-30T07:30:54.865Z,51.323463
2022-08-30T07:31:54.836Z,51.323452
2022-08-30T07:32:54.819Z,51.323414
2022-08-30T07:33:54.809Z,51.323460
2022-08-30T07:34:54.794Z,51.323471
2022-08-30T07:35:54.767Z,51.323467
2022-08-30T07:36:54.749Z,51.323441
2022-08-30T07:37:54.734Z,51.323410
2022-08-30T07:38:54.715Z,51.323463
2022-08-30T07:39:54.698Z,51.323463
2022-08-30T07:40:54.683Z,51.323425
2022-08-30T07:41:54.664Z,51.323376
2022-08-30T07:42:54.652Z,51.323433
2022-08-30T07:43:54.636Z,51.323452
2022-08-30T07:44:56.783Z,51.323452
2022-08-30T07:45:55.703Z,51.323429
2022-08-30T07:46:54.633Z,51.323463
2022-08-30T07:47:54.557Z,51.323463
2022-08-30T07:48:54.539Z,51.323460
2022-08-30T07:49:54.524Z,51.323471
2022-08-30T07:50:58.216Z,51.323467
2022-08-30T07:51:56.487Z,51.323444
2022-08-30T07:52:54.473Z,51.323456
2022-08-30T07:53:54.460Z,51.323456
2022-08-30T07:54:54.437Z,51.323444
2022-08-30T07:55:54.415Z,51.323452
2022-08-30T07:56:54.399Z,51.323452
2022-08-30T07:57:54.407Z,51.323433
2022-08-30T07:58:54.366Z,51.323444
2022-08-30T07:59:54.339Z,51.323471
2022-08-30T08:00:54.322Z,51.323456
2022-08-30T08:01:54.374Z,51.323456
2022-08-30T08:02:54.351Z,51.323452
2022-08-30T08:03:54.275Z,51.323452
2022-08-30T08:04:54.252Z,51.323437
2022-08-30T08:05:54.238Z,51.323444
2022-08-30T08:06:54.216Z,51.323460
2022-08-30T08:07:54.204Z,51.323460
2022-08-30T08:08:54.439Z,51.323429
2022-08-30T08:09:54.161Z,51.323441
2022-08-30T08:10:54.148Z,51.323448
2022-08-30T08:11:54.125Z,51.323444
2022-08-30T08:12:54.114Z,51.323425
2022-08-30T08:13:54.565Z,51.323433
2022-08-30T08:14:54.072Z,51.323441
2022-08-30T08:15:54.071Z,51.323456
2022-08-30T08:16:54.040Z,51.323460
2022-08-30T08:17:54.026Z,51.323456
2022-08-30T08:18:54.007Z,51.323441
2022-08-30T08:19:53.985Z,51.323433
2022-08-30T08:20:53.975Z,51.323429
2022-08-30T08:22:09.208Z,51.323452
2022-08-30T08:22:55.939Z,51.323448
2022-08-30T08:23:53.915Z,51.323452
2022-08-30T08:24:53.897Z,51.323452
2022-08-30T08:25:53.878Z,51.323452
2022-08-30T08:26:53.857Z,51.323452
2022-08-30T08:27:53.843Z,51.323444
2022-08-30T08:28:53.827Z,51.323448
2022-08-30T08:29:53.809Z,51.323448
2022-08-30T08:30:53.819Z,51.323456
2022-08-30T08:31:53.774Z,51.323456
2022-08-30T08:32:53.751Z,51.323460
2022-08-30T08:33:53.776Z,51.323456
2022-08-30T08:34:53.721Z,51.323448
2022-08-30T08:35:53.700Z,51.323444
2022-08-30T08:36:53.679Z,51.323452
2022-08-30T08:37:53.660Z,51.323433
2022-08-30T08:38:53.643Z,51.323448
2022-08-30T08:39:53.621Z,51.323444
2022-08-30T08:40:53.609Z,51.323460
2022-08-30T08:41:53.585Z,51.323471
2022-08-30T08:42:53.573Z,51.323452
2022-08-30T08:43:53.556Z,51.323437
2022-08-30T08:44:54.637Z,51.323452
2022-08-30T08:45:53.555Z,51.323463
2022-08-30T08:46:53.500Z,51.323452
2022-08-30T08:47:53.482Z,51.323460
2022-08-30T08:49:00.955Z,51.323452
2022-08-30T08:49:55.444Z,51.323456
2022-08-30T08:50:53.425Z,51.323452
2022-08-30T08:51:53.409Z,51.323456
2022-08-30T08:52:53.387Z,51.323444
2022-08-30T08:53:53.368Z,51.323448
2022-08-30T08:54:53.352Z,51.323448
2022-08-30T08:55:53.335Z,51.323463
2022-08-30T08:56:53.317Z,51.323467
2022-08-30T08:57:53.302Z,51.323441
2022-08-30T08:58:53.280Z,51.323456
2022-08-30T08:59:53.259Z,51.323456
2022-08-30T09:00:53.244Z,51.323448
2022-08-30T09:01:53.287Z,51.323452
2022-08-30T09:02:55.774Z,51.323463
2022-08-30T09:03:54.192Z,51.323444
2022-08-30T09:04:53.196Z,51.323441
2022-08-30T09:05:53.156Z,51.323463
2022-08-30T09:06:53.140Z,51.323433
2022-08-30T09:07:53.118Z,51.323418
2022-08-30T09:08:53.102Z,51.323448
2022-08-30T09:09:53.086Z,51.323467
2022-08-30T09:10:53.066Z,51.323444
2022-08-30T09:11:53.052Z,51.323418
2022-08-30T09:12:56.826Z,51.323433
2022-08-30T09:13:54.010Z,51.323429
2022-08-30T09:14:55.529Z,51.323437
2022-08-30T09:15:54.828Z,51.323429
2022-08-30T09:16:53.955Z,51.323433
2022-08-30T09:17:52.936Z,51.323437
2022-08-30T09:18:54.833Z,51.323433
2022-08-30T09:19:53.899Z,51.323433
2022-08-30T09:20:52.884Z,51.323421
2022-08-30T09:21:53.020Z,51.323456
2022-08-30T09:22:52.847Z,51.323463
2022-08-30T09:23:52.829Z,51.323479
2022-08-30T09:24:52.810Z,51.323456
2022-08-30T09:25:52.796Z,51.323433
2022-08-30T09:26:52.774Z,51.323425
2022-08-30T09:27:52.758Z,51.323448
2022-08-30T09:28:52.737Z,51.323433
2022-08-30T09:29:52.716Z,51.323421
2022-08-30T09:30:52.790Z,51.323421
2022-08-30T09:32:01.333Z,51.323437
2022-08-30T09:32:54.673Z,51.323402
2022-08-30T09:33:52.650Z,51.323406
2022-08-30T09:34:52.633Z,51.323410
2022-08-30T09:35:54.188Z,51.323387
2022-08-30T09:36:52.611Z,51.323368
2022-08-30T09:37:52.576Z,51.323357
2022-08-30T09:38:52.559Z,51.323368
2022-08-30T09:39:52.544Z,51.323406
2022-08-30T09:40:52.519Z,51.323421
2022-08-30T09:41:52.502Z,51.323437
2022-08-30T09:42:52.487Z,51.323441
2022-08-30T09:43:52.468Z,51.323395
2022-08-30T09:44:52.444Z,51.323380
2022-08-30T09:45:52.455Z,51.323383
2022-08-30T09:46:52.412Z,51.323410
2022-08-30T09:47:52.395Z,51.323387
2022-08-30T09:48:52.377Z,51.323406
2022-08-30T09:49:52.356Z,51.323418
2022-08-30T09:50:55.935Z,51.323387
2022-08-30T09:51:52.328Z,51.323414
2022-08-30T09:52:55.354Z,51.323391
2022-08-30T09:54:16.602Z,51.323406
2022-08-30T09:54:54.266Z,51.323406
2022-08-30T09:55:52.250Z,51.323418
2022-08-30T09:56:52.228Z,51.323395
2022-08-30T09:57:52.209Z,51.323402
2022-08-30T09:58:52.191Z,51.323410
2022-08-30T09:59:52.175Z,51.323414
2022-08-30T10:00:52.200Z,51.323406
2022-08-30T10:01:52.136Z,51.323387
2022-08-30T10:02:52.118Z,51.323410
2022-08-30T10:03:52.100Z,51.323418
2022-08-30T10:04:52.080Z,51.323406
2022-08-30T10:05:52.144Z,51.323406
2022-08-30T10:06:52.030Z,51.323383
2022-08-30T10:07:53.730Z,51.323380
2022-08-30T10:08:52.014Z,51.323383
2022-08-30T10:09:51.982Z,51.323387
2022-08-30T10:10:51.970Z,51.323402
2022-08-30T10:11:51.948Z,51.323402
2022-08-30T10:12:51.926Z,51.323414
2022-08-30T10:13:51.906Z,51.323418
2022-08-30T10:14:51.891Z,51.323410
2022-08-30T10:15:51.872Z,51.323414
2022-08-30T10:16:51.852Z,51.323406
2022-08-30T10:17:51.847Z,51.323406
2022-08-30T10:18:51.823Z,51.323418
2022-08-30T10:19:51.800Z,51.323425
2022-08-30T10:20:51.781Z,51.323406
2022-08-30T10:21:51.762Z,51.323399
2022-08-30T10:22:51.741Z,51.323406
2022-08-30T10:23:51.724Z,51.323406
2022-08-30T10:24:51.704Z,51.323395
2022-08-30T10:25:51.686Z,51.323399
2022-08-30T10:26:51.665Z,51.323395
2022-08-30T10:27:51.648Z,51.323395
2022-08-30T10:28:52.445Z,51.323387
2022-08-30T10:29:51.613Z,51.323383
2022-08-30T10:30:51.594Z,51.323406
2022-08-30T10:31:51.579Z,51.323402
2022-08-30T10:32:51.556Z,51.323402
2022-08-30T10:33:51.534Z,51.323399
2022-08-30T10:34:51.517Z,51.323414
2022-08-30T10:35:51.500Z,51.323421
2022-08-30T10:36:51.479Z,51.323410
2022-08-30T10:37:51.508Z,51.323387
2022-08-30T10:38:51.442Z,51.323387
2022-08-30T10:39:51.426Z,51.323406
2022-08-30T10:40:51.409Z,51.323391
2022-08-30T10:41:51.391Z,51.323395
2022-08-30T10:42:51.368Z,51.323383
2022-08-30T10:43:52.667Z,51.323380
2022-08-30T10:44:51.333Z,51.323380
2022-08-30T10:45:51.315Z,51.323383
2022-08-30T10:46:51.299Z,51.323387
2022-08-30T10:47:51.278Z,51.323391
2022-08-30T10:48:51.262Z,51.323383
2022-08-30T10:49:51.371Z,51.323395
2022-08-30T10:50:51.226Z,51.323402
2022-08-30T10:51:51.208Z,51.323406
2022-08-30T10:52:51.188Z,51.323402
2022-08-30T10:53:51.169Z,51.323402
2022-08-30T10:54:51.151Z,51.323399
2022-08-30T10:55:51.130Z,51.323380
2022-08-30T10:56:51.114Z,51.323391
2022-08-30T10:57:51.100Z,51.323399
2022-08-30T10:58:51.079Z,51.323414
2022-08-30T10:59:51.056Z,51.323399
2022-08-30T11:00:51.091Z,51.323402
2022-08-30T11:01:51.071Z,51.323421
2022-08-30T11:02:51.003Z,51.323418
2022-08-30T11:03:50.985Z,51.323402
2022-08-30T11:04:50.970Z,51.323402
2022-08-30T11:05:50.944Z,51.323410
2022-08-30T11:06:52.676Z,51.323410
2022-08-30T11:07:52.170Z,51.323402
2022-08-30T11:08:50.890Z,51.323391
2022-08-30T11:09:50.876Z,51.323387
2022-08-30T11:10:50.861Z,51.323402
2022-08-30T11:11:50.841Z,51.323406
2022-08-30T11:12:50.828Z,51.323387
2022-08-30T11:13:54.601Z,51.323383
2022-08-30T11:14:51.784Z,51.323383
2022-08-30T11:15:50.769Z,51.323399
2022-08-30T11:16:50.745Z,51.323399
2022-08-30T11:17:50.751Z,51.323372
2022-08-30T11:18:50.915Z,51.323387
2022-08-30T11:19:50.692Z,51.323383
2022-08-30T11:20:50.672Z,51.323399
2022-08-30T11:21:50.982Z,51.323391
2022-08-30T11:22:50.635Z,51.323383
2022-08-30T11:23:50.616Z,51.323429